Time;durP1;ratioP1;P1;durP2;ratioP2;P2;SDS_P1;SDS_P2;PMS_P1;PMS_P2;Temp;Humidity;BMP_temperature;BMP_pressure;BME280_temperature;BME280_humidity;BME280_pressure;Samples;Min_cycle;Max_cycle;Signal;HPM_P1;HPM_P2
2023/10/26 00:01:35;;;;;;;73.15;40.92;;;;;;;;;;4927711;29;20031;-48
2023/10/26 00:04:02;;;;;;;71.68;43.22;;;;;;;;;;4937920;29;20039;-51
2023/10/26 00:06:28;;;;;;;63.83;40.53;;;;;;;;;;4921442;29;20051;-49
2023/10/26 00:08:54;;;;;;;73.43;41.22;;;;;;;;;;4939159;29;20094;-51
2023/10/26 00:11:20;;;;;;;76.53;39.63;;;;;;;;;;4937777;29;20019;-48
2023/10/26 00:13:46;;;;;;;68.30;39.28;;;;;;;;;;4938702;29;20386;-48
2023/10/26 00:16:12;;;;;;;79.45;41.90;;;;;;;;;;4939811;29;20027;-48
2023/10/26 00:18:39;;;;;;;83.40;44.55;;;;;;;;;;4937689;29;20023;-47
2023/10/26 00:21:05;;;;;;;75.60;44.40;;;;;;;;;;4937581;29;20032;-54
2023/10/26 00:23:31;;;;;;;79.38;44.65;;;;;;;;;;4945318;29;20054;-53
2023/10/26 00:25:57;;;;;;;79.60;47.00;;;;;;;;;;4920428;29;20119;-54
2023/10/26 00:28:23;;;;;;;88.68;46.55;;;;;;;;;;4938359;29;20079;-52
2023/10/26 00:30:49;;;;;;;76.53;45.35;;;;;;;;;;4938951;29;20031;-51
2023/10/26 00:33:16;;;;;;;86.10;46.57;;;;;;;;;;4941390;29;20035;-48
2023/10/26 00:35:42;;;;;;;83.82;46.65;;;;;;;;;;4953771;29;20130;-49
2023/10/26 00:38:08;;;;;;;76.93;44.53;;;;;;;;;;4955845;29;20031;-50
2023/10/26 00:40:34;;;;;;;92.00;48.80;;;;;;;;;;4920180;29;20035;-48
2023/10/26 00:43:01;;;;;;;89.35;49.47;;;;;;;;;;4941663;29;20031;-50
2023/10/26 00:45:32;;;;;;;87.07;48.60;;;;;;;;;;4934202;29;20490;-48
2023/10/26 00:47:59;;;;;;;93.93;49.38;;;;;;;;;;4919742;29;20071;-48
2023/10/26 00:50:26;;;;;;;82.82;47.97;;;;;;;;;;4936930;29;20023;-53
2023/10/26 00:52:53;;;;;;;92.88;49.42;;;;;;;;;;4939440;29;20037;-53
2023/10/26 00:55:19;;;;;;;92.47;49.08;;;;;;;;;;4937902;29;20516;-49
2023/10/26 00:57:45;;;;;;;86.93;48.45;;;;;;;;;;4936795;29;20043;-50
2023/10/26 01:00:12;;;;;;;94.90;50.87;;;;;;;;;;4938639;29;20350;-50
2023/10/26 01:02:38;;;;;;;83.43;46.88;;;;;;;;;;4935073;29;20462;-53
2023/10/26 01:05:05;;;;;;;83.38;48.95;;;;;;;;;;4940000;29;20043;-48
2023/10/26 01:07:31;;;;;;;89.45;48.58;;;;;;;;;;4936555;29;20550;-48
2023/10/26 01:09:58;;;;;;;97.63;51.07;;;;;;;;;;4928005;29;20517;-49
2023/10/26 01:12:24;;;;;;;77.53;44.97;;;;;;;;;;4938323;29;20039;-50
2023/10/26 01:14:50;;;;;;;94.45;51.10;;;;;;;;;;4946039;29;20062;-48
2023/10/26 01:17:17;;;;;;;86.73;47.13;;;;;;;;;;4936350;29;20035;-53
2023/10/26 01:19:44;;;;;;;86.63;45.77;;;;;;;;;;4951078;29;20036;-48
2023/10/26 01:22:10;;;;;;;81.75;46.25;;;;;;;;;;4938033;29;20487;-53
2023/10/26 01:24:37;;;;;;;83.22;46.10;;;;;;;;;;4948871;29;20035;-51
2023/10/26 01:27:04;;;;;;;81.85;45.75;;;;;;;;;;4919072;29;20039;-50
2023/10/26 01:29:31;;;;;;;82.18;44.38;;;;;;;;;;4925362;29;20394;-51
2023/10/26 01:31:57;;;;;;;84.88;44.72;;;;;;;;;;4941634;29;20036;-48
2023/10/26 01:34:23;;;;;;;88.07;46.27;;;;;;;;;;4937220;29;20114;-52
2023/10/26 01:36:49;;;;;;;79.55;46.17;;;;;;;;;;4937861;29;20324;-53
2023/10/26 01:39:19;;;;;;;90.60;47.70;;;;;;;;;;4938002;29;20043;-49
2023/10/26 01:41:47;;;;;;;80.07;44.38;;;;;;;;;;4955319;29;20027;-49
2023/10/26 01:44:13;;;;;;;92.18;45.25;;;;;;;;;;4937987;29;20027;-53
2023/10/26 01:46:39;;;;;;;90.63;46.80;;;;;;;;;;4953112;29;20035;-49
2023/10/26 01:49:05;;;;;;;84.43;44.80;;;;;;;;;;4935960;29;20035;-48
2023/10/26 01:51:32;;;;;;;90.03;46.23;;;;;;;;;;4918907;29;20036;-50
2023/10/26 01:53:59;;;;;;;82.25;44.13;;;;;;;;;;4935840;29;20083;-50
2023/10/26 01:56:26;;;;;;;88.87;46.20;;;;;;;;;;4935698;29;20107;-49
2023/10/26 01:58:52;;;;;;;89.68;47.08;;;;;;;;;;4918727;29;20020;-48
2023/10/26 02:01:18;;;;;;;88.05;46.70;;;;;;;;;;4918423;29;20479;-49
2023/10/26 02:03:45;;;;;;;95.60;48.67;;;;;;;;;;4918452;29;20030;-51
2023/10/26 02:06:12;;;;;;;92.35;49.08;;;;;;;;;;4918240;29;20177;-48
2023/10/26 02:08:38;;;;;;;102.83;49.97;;;;;;;;;;4946073;29;20078;-48
2023/10/26 02:11:05;;;;;;;99.40;49.20;;;;;;;;;;4937814;29;20027;-48
2023/10/26 02:13:31;;;;;;;95.22;49.63;;;;;;;;;;4944233;29;20023;-50
2023/10/26 02:16:01;;;;;;;95.50;49.77;;;;;;;;;;4935596;29;20070;-49
2023/10/26 02:18:27;;;;;;;101.00;50.53;;;;;;;;;;4935865;29;20035;-54
2023/10/26 02:20:53;;;;;;;107.20;55.13;;;;;;;;;;4939234;29;20070;-53
2023/10/26 02:23:21;;;;;;;102.57;54.08;;;;;;;;;;4919244;29;20035;-48
2023/10/26 02:25:48;;;;;;;116.53;55.45;;;;;;;;;;4918124;29;20531;-51
2023/10/26 02:28:15;;;;;;;113.75;54.15;;;;;;;;;;4921525;29;20095;-51
2023/10/26 02:30:43;;;;;;;130.63;55.22;;;;;;;;;;4921332;29;20020;-50
2023/10/26 02:33:09;;;;;;;138.57;61.03;;;;;;;;;;4926170;29;20023;-50
2023/10/26 02:35:36;;;;;;;146.55;61.15;;;;;;;;;;4953969;29;20082;-51
2023/10/26 02:38:02;;;;;;;143.98;59.63;;;;;;;;;;4917889;29;20035;-52
2023/10/26 02:40:28;;;;;;;130.20;57.47;;;;;;;;;;4902305;29;20135;-48
2023/10/26 02:42:54;;;;;;;116.43;53.42;;;;;;;;;;4935080;29;20487;-49
2023/10/26 02:45:20;;;;;;;105.35;51.33;;;;;;;;;;4935021;29;20059;-48
2023/10/26 02:47:46;;;;;;;89.55;45.28;;;;;;;;;;4934738;29;20126;-49
2023/10/26 02:50:12;;;;;;;82.53;42.30;;;;;;;;;;4931315;28;20035;-48
2023/10/26 02:52:40;;;;;;;79.47;41.00;;;;;;;;;;4962220;28;20028;-48
2023/10/26 02:55:07;;;;;;;89.97;45.95;;;;;;;;;;4924463;29;20126;-48
2023/10/26 02:57:33;;;;;;;76.10;41.75;;;;;;;;;;4953880;29;20487;-50
2023/10/26 02:59:59;;;;;;;65.83;39.10;;;;;;;;;;4935843;29;20422;-50
2023/10/26 03:02:26;;;;;;;74.30;38.15;;;;;;;;;;4948876;29;20078;-54
2023/10/26 03:04:52;;;;;;;72.78;39.30;;;;;;;;;;4935479;29;20035;-51
2023/10/26 03:07:22;;;;;;;97.93;45.80;;;;;;;;;;4902809;29;20035;-53
2023/10/26 03:09:49;;;;;;;83.18;42.28;;;;;;;;;;4918607;29;20039;-51
2023/10/26 03:12:17;;;;;;;82.65;42.53;;;;;;;;;;4933087;29;20028;-52
2023/10/26 03:14:43;;;;;;;111.43;46.58;;;;;;;;;;4941283;28;20019;-48
2023/10/26 03:17:10;;;;;;;97.40;43.30;;;;;;;;;;4936428;29;20401;-49
2023/10/26 03:19:36;;;;;;;110.57;45.92;;;;;;;;;;4925545;29;20078;-52
2023/10/26 03:22:03;;;;;;;97.75;43.08;;;;;;;;;;4934549;29;20108;-48
2023/10/26 03:24:29;;;;;;;99.65;45.22;;;;;;;;;;4953138;29;20461;-49
2023/10/26 03:26:55;;;;;;;105.57;46.22;;;;;;;;;;4942991;29;20173;-50
2023/10/26 03:29:21;;;;;;;135.98;46.95;;;;;;;;;;4934481;29;20020;-48
2023/10/26 03:31:47;;;;;;;96.80;46.17;;;;;;;;;;4945735;29;20358;-48
2023/10/26 03:34:14;;;;;;;107.05;46.22;;;;;;;;;;4953212;29;20510;-48
2023/10/26 03:36:40;;;;;;;125.55;47.47;;;;;;;;;;4912376;29;20391;-48
2023/10/26 03:39:06;;;;;;;121.43;47.23;;;;;;;;;;4934410;29;20099;-50
2023/10/26 03:41:32;;;;;;;133.05;47.53;;;;;;;;;;4924718;29;20419;-53
2023/10/26 03:43:59;;;;;;;111.13;44.90;;;;;;;;;;4923847;29;20398;-48
2023/10/26 03:46:25;;;;;;;207.10;55.40;;;;;;;;;;4937573;29;20094;-49
2023/10/26 03:48:51;;;;;;;135.68;50.97;;;;;;;;;;4951345;29;20110;-52
2023/10/26 03:51:17;;;;;;;149.57;48.92;;;;;;;;;;4936281;29;20537;-49
2023/10/26 03:53:44;;;;;;;159.00;51.20;;;;;;;;;;4936043;29;20083;-52
2023/10/26 03:56:10;;;;;;;157.85;50.33;;;;;;;;;;4935834;29;20027;-50
2023/10/26 03:58:36;;;;;;;221.48;55.55;;;;;;;;;;4952217;29;20034;-50
2023/10/26 04:01:02;;;;;;;257.10;58.30;;;;;;;;;;4936038;29;20039;-49
2023/10/26 04:03:29;;;;;;;273.15;55.80;;;;;;;;;;4920368;29;20043;-48
2023/10/26 04:05:55;;;;;;;322.25;70.05;;;;;;;;;;4953070;29;20402;-49
2023/10/26 04:08:21;;;;;;;146.17;55.03;;;;;;;;;;4953214;29;20039;-50
2023/10/26 04:10:48;;;;;;;206.77;57.67;;;;;;;;;;4953165;29;20054;-49
2023/10/26 04:13:14;;;;;;;182.17;53.73;;;;;;;;;;4953112;29;20034;-48
2023/10/26 04:15:40;;;;;;;217.88;55.13;;;;;;;;;;4920045;29;20513;-48
2023/10/26 04:18:06;;;;;;;142.25;52.83;;;;;;;;;;4953037;29;20397;-50
2023/10/26 04:20:32;;;;;;;174.90;55.73;;;;;;;;;;4953004;29;20086;-48
2023/10/26 04:23:00;;;;;;;337.20;65.40;;;;;;;;;;4953186;29;20464;-48
2023/10/26 04:25:29;;;;;;;211.43;57.30;;;;;;;;;;4937508;29;20038;-50
2023/10/26 04:27:55;;;;;;;203.68;56.42;;;;;;;;;;4956410;29;20035;-48
2023/10/26 04:30:22;;;;;;;181.48;58.83;;;;;;;;;;4956677;29;20390;-48
2023/10/26 04:32:48;;;;;;;157.90;55.20;;;;;;;;;;4939594;29;20051;-51
2023/10/26 04:35:14;;;;;;;223.07;55.05;;;;;;;;;;4956833;29;20462;-48
2023/10/26 04:37:40;;;;;;;126.57;50.80;;;;;;;;;;4939356;29;20027;-48
2023/10/26 04:40:07;;;;;;;324.90;72.10;;;;;;;;;;4956590;29;20039;-48
2023/10/26 04:42:33;;;;;;;175.57;56.30;;;;;;;;;;4956433;29;20067;-50
2023/10/26 04:44:59;;;;;;;184.95;58.17;;;;;;;;;;4956359;29;20071;-51
2023/10/26 04:47:25;;;;;;;145.40;55.28;;;;;;;;;;4956201;29;20417;-52
2023/10/26 04:49:52;;;;;;;142.32;53.15;;;;;;;;;;4956467;29;20027;-53
2023/10/26 04:52:20;;;;;;;202.05;56.30;;;;;;;;;;4956366;29;20027;-51
2023/10/26 04:54:46;;;;;;;270.95;64.72;;;;;;;;;;4956300;29;20027;-49
2023/10/26 04:57:12;;;;;;;205.57;60.08;;;;;;;;;;4938975;29;20032;-49
2023/10/26 04:59:38;;;;;;;134.15;47.72;;;;;;;;;;4956057;29;20086;-50
2023/10/26 05:02:05;;;;;;;137.40;48.45;;;;;;;;;;4956036;29;20035;-47
2023/10/26 05:04:31;;;;;;;200.77;53.67;;;;;;;;;;4956027;29;20038;-50
2023/10/26 05:06:57;;;;;;;189.90;51.85;;;;;;;;;;4955881;29;20379;-50
2023/10/26 05:09:23;;;;;;;191.67;53.50;;;;;;;;;;4938895;29;20078;-52
2023/10/26 05:11:49;;;;;;;145.15;50.95;;;;;;;;;;4955845;29;20031;-52
2023/10/26 05:14:16;;;;;;;106.13;45.60;;;;;;;;;;4938714;29;20038;-47
2023/10/26 05:16:42;;;;;;;159.57;51.25;;;;;;;;;;4955619;29;20474;-52
2023/10/26 05:19:08;;;;;;;174.13;53.78;;;;;;;;;;4938770;29;20043;-53
2023/10/26 05:21:34;;;;;;;168.17;53.43;;;;;;;;;;4955816;29;20035;-49
2023/10/26 05:24:00;;;;;;;247.38;61.03;;;;;;;;;;4955666;29;20063;-47
2023/10/26 05:26:26;;;;;;;186.25;55.22;;;;;;;;;;4955417;29;20058;-51
2023/10/26 05:28:53;;;;;;;310.05;69.07;;;;;;;;;;4955905;29;20035;-51
2023/10/26 05:31:19;;;;;;;307.13;73.13;;;;;;;;;;4955609;29;20032;-51
2023/10/26 05:33:46;;;;;;;237.02;66.50;;;;;;;;;;4955606;29;20027;-47
2023/10/26 05:36:12;;;;;;;405.73;84.07;;;;;;;;;;4954627;28;20654;-49
2023/10/26 05:38:39;;;;;;;245.45;69.45;;;;;;;;;;4955164;29;20497;-51
2023/10/26 05:41:05;;;;;;;216.10;66.67;;;;;;;;;;4955688;29;20458;-51
2023/10/26 05:43:32;;;;;;;256.52;71.47;;;;;;;;;;4955410;29;20266;-52
2023/10/26 05:46:03;;;;;;;501.75;102.97;;;;;;;;;;4955106;29;20031;-52
2023/10/26 05:48:31;;;;;;;422.80;91.75;;;;;;;;;;4938058;29;20027;-55
2023/10/26 05:50:58;;;;;;;441.80;95.85;;;;;;;;;;4955310;29;20027;-55
2023/10/26 05:53:24;;;;;;;394.30;92.53;;;;;;;;;;4932163;29;20031;-56
2023/10/26 05:55:57;;;;;;;381.33;86.75;;;;;;;;;;4943259;29;20263;-51
2023/10/26 05:58:23;;;;;;;293.48;82.93;;;;;;;;;;4917300;29;20035;-53
2023/10/26 06:00:49;;;;;;;345.40;87.97;;;;;;;;;;4918237;29;20046;-50
2023/10/26 06:03:15;;;;;;;340.70;85.50;;;;;;;;;;4917442;29;20082;-49
2023/10/26 06:05:42;;;;;;;327.90;82.80;;;;;;;;;;4918615;29;20035;-46
2023/10/26 06:08:08;;;;;;;392.13;89.77;;;;;;;;;;4935783;29;20063;-47
2023/10/26 06:10:34;;;;;;;508.77;90.07;;;;;;;;;;4935638;29;20028;-47
2023/10/26 06:13:02;;;;;;;366.45;83.25;;;;;;;;;;4935551;29;20479;-51
2023/10/26 06:15:28;;;;;;;434.67;90.32;;;;;;;;;;4935543;29;20039;-48
2023/10/26 06:17:54;;;;;;;277.48;78.68;;;;;;;;;;4918273;29;20505;-49
2023/10/26 06:20:24;;;;;;;363.40;85.88;;;;;;;;;;4935342;29;20375;-47
2023/10/26 06:22:50;;;;;;;335.05;89.07;;;;;;;;;;4939180;29;20074;-49
2023/10/26 06:25:16;;;;;;;276.35;80.15;;;;;;;;;;4954625;29;20035;-49
2023/10/26 06:27:42;;;;;;;342.25;88.75;;;;;;;;;;4954492;29;20131;-47
2023/10/26 06:30:09;;;;;;;313.30;84.57;;;;;;;;;;4954716;29;20023;-50
2023/10/26 06:32:36;;;;;;;356.23;97.23;;;;;;;;;;4954555;29;20054;-50
2023/10/26 06:35:02;;;;;;;;;;;;;;;;;;4954664;29;20051;-48
2023/10/26 06:37:28;;;;;;;296.83;86.38;;;;;;;;;;4954166;29;20384;-48
2023/10/26 06:39:55;;;;;;;264.57;81.20;;;;;;;;;;4954444;29;20125;-52
2023/10/26 06:42:21;;;;;;;294.20;82.65;;;;;;;;;;4937447;29;20063;-49
2023/10/26 06:44:55;;;;;;;303.00;86.63;;;;;;;;;;4922303;29;20031;-50
2023/10/26 06:47:22;;;;;;;235.88;77.78;;;;;;;;;;4936825;28;20517;-49
2023/10/26 06:49:48;;;;;;;244.70;73.65;;;;;;;;;;4973307;28;20065;-50
2023/10/26 06:52:14;;;;;;;276.63;75.65;;;;;;;;;;4973387;28;20034;-49
2023/10/26 06:54:40;;;;;;;257.40;79.50;;;;;;;;;;4937566;29;20410;-50
2023/10/26 06:57:06;;;;;;;242.45;75.63;;;;;;;;;;4954054;29;20406;-51
2023/10/26 06:59:32;;;;;;;256.77;74.95;;;;;;;;;;4954028;29;20118;-48
2023/10/26 07:01:59;;;;;;;290.23;76.27;;;;;;;;;;4953879;29;20050;-49
2023/10/26 07:04:26;;;;;;;214.10;70.25;;;;;;;;;;4953893;29;20482;-48
2023/10/26 07:06:52;;;;;;;307.38;79.75;;;;;;;;;;4953708;29;20055;-50
2023/10/26 07:09:18;;;;;;;247.25;72.63;;;;;;;;;;4953831;29;20035;-49
2023/10/26 07:11:45;;;;;;;224.32;72.90;;;;;;;;;;4953930;29;20647;-48
2023/10/26 07:14:11;;;;;;;;;;;;;;;;;;4954244;29;20034;-48
2023/10/26 07:16:38;;;;;;;206.38;66.13;;;;;;;;;;4953361;29;19910;-50
2023/10/26 07:19:04;;;;;;;209.25;64.13;;;;;;;;;;4953767;29;20367;-52
2023/10/26 07:21:33;;;;;;;172.75;61.72;;;;;;;;;;4953797;29;20035;-49
2023/10/26 07:24:00;;;;;;;216.63;63.38;;;;;;;;;;4953517;29;20027;-51
2023/10/26 07:26:26;;;;;;;281.98;70.93;;;;;;;;;;4936446;29;20444;-50
2023/10/26 07:28:53;;;;;;;179.63;59.65;;;;;;;;;;4953587;29;20127;-48
2023/10/26 07:31:22;;;;;;;189.05;61.72;;;;;;;;;;4953485;29;20043;-51
2023/10/26 07:33:49;;;;;;;167.63;56.10;;;;;;;;;;4953577;29;20565;-51
2023/10/26 07:36:15;;;;;;;156.27;55.63;;;;;;;;;;4953290;29;20023;-48
2023/10/26 07:38:41;;;;;;;151.25;53.75;;;;;;;;;;4953433;29;20035;-50
2023/10/26 07:41:08;;;;;;;136.43;51.57;;;;;;;;;;4953598;29;20083;-50
2023/10/26 07:43:37;;;;;;;133.60;50.53;;;;;;;;;;4953448;29;20341;-54
2023/10/26 07:46:03;;;;;;;148.57;52.45;;;;;;;;;;4936067;29;20274;-49
2023/10/26 07:48:31;;;;;;;171.32;56.67;;;;;;;;;;4953460;29;20114;-48
2023/10/26 07:50:57;;;;;;;144.70;50.65;;;;;;;;;;4953530;29;20094;-50
2023/10/26 07:53:23;;;;;;;168.67;56.00;;;;;;;;;;4945050;29;20051;-51
2023/10/26 07:55:50;;;;;;;145.75;54.60;;;;;;;;;;4934260;29;20020;-49
2023/10/26 07:58:16;;;;;;;124.95;49.00;;;;;;;;;;4934243;29;20090;-51
2023/10/26 08:00:44;;;;;;;151.70;55.20;;;;;;;;;;4936128;29;20028;-50
2023/10/26 08:03:10;;;;;;;133.50;51.72;;;;;;;;;;4938127;29;20380;-55
2023/10/26 08:05:36;;;;;;;127.82;47.42;;;;;;;;;;4937912;29;20380;-53
2023/10/26 08:08:02;;;;;;;124.00;48.38;;;;;;;;;;4937836;29;20505;-56
2023/10/26 08:10:31;;;;;;;132.97;51.53;;;;;;;;;;4937953;29;20056;-59
2023/10/26 08:12:57;;;;;;;142.35;51.53;;;;;;;;;;4920528;29;20674;-49
2023/10/26 08:15:24;;;;;;;136.52;53.22;;;;;;;;;;4937692;29;20426;-49
2023/10/26 08:17:50;;;;;;;130.63;49.78;;;;;;;;;;4920595;29;20036;-49
2023/10/26 08:20:16;;;;;;;111.30;47.53;;;;;;;;;;4937316;29;20036;-52
2023/10/26 08:22:42;;;;;;;135.02;52.95;;;;;;;;;;4937649;29;20040;-49
2023/10/26 08:25:09;;;;;;;125.60;49.00;;;;;;;;;;4937630;29;20040;-51
2023/10/26 08:27:35;;;;;;;107.27;46.33;;;;;;;;;;4937270;29;20413;-50
2023/10/26 08:30:02;;;;;;;124.95;52.55;;;;;;;;;;4937584;29;20118;-52
2023/10/26 08:32:28;;;;;;;125.63;48.72;;;;;;;;;;4937446;29;20562;-50
2023/10/26 08:34:55;;;;;;;114.32;47.33;;;;;;;;;;4937430;29;20418;-49
2023/10/26 08:37:21;;;;;;;122.43;50.70;;;;;;;;;;4937257;29;20036;-49
2023/10/26 08:39:47;;;;;;;120.70;49.30;;;;;;;;;;4937390;29;20509;-49
2023/10/26 08:42:13;;;;;;;132.93;51.40;;;;;;;;;;4920179;29;20398;-50
2023/10/26 08:44:40;;;;;;;127.88;49.42;;;;;;;;;;4904692;29;20070;-48
2023/10/26 08:47:06;;;;;;;119.13;48.22;;;;;;;;;;4919939;29;20036;-51
2023/10/26 08:49:33;;;;;;;125.18;51.08;;;;;;;;;;4937175;29;20079;-48
2023/10/26 08:51:59;;;;;;;112.55;46.60;;;;;;;;;;4937142;29;20076;-48
2023/10/26 08:54:29;;;;;;;125.72;51.60;;;;;;;;;;4919908;29;20036;-51
2023/10/26 08:56:55;;;;;;;115.68;48.13;;;;;;;;;;4936794;29;20496;-49
2023/10/26 08:59:23;;;;;;;112.80;46.70;;;;;;;;;;4937027;29;20043;-53
2023/10/26 09:01:49;;;;;;;121.43;49.55;;;;;;;;;;4919791;29;20054;-51
2023/10/26 09:04:16;;;;;;;118.55;46.33;;;;;;;;;;4936914;29;20086;-49
2023/10/26 09:06:45;;;;;;;129.98;48.35;;;;;;;;;;4936658;29;20027;-50
2023/10/26 09:09:11;;;;;;;118.30;46.88;;;;;;;;;;4936693;29;20083;-51
2023/10/26 09:11:37;;;;;;;116.20;49.40;;;;;;;;;;4935356;29;20036;-49
2023/10/26 09:14:13;;;;;;;120.47;50.25;;;;;;;;;;4936754;29;20032;-50
2023/10/26 09:16:44;;;;;;;133.68;50.47;;;;;;;;;;4919515;29;20103;-49
2023/10/26 09:19:15;;;;;;;125.88;48.35;;;;;;;;;;4936695;29;20035;-47
2023/10/26 09:21:49;;;;;;;132.50;51.90;;;;;;;;;;4936384;29;20517;-49
2023/10/26 09:24:29;;;;;;;131.35;51.05;;;;;;;;;;4937342;29;20087;-51
2023/10/26 09:26:56;;;;;;;132.50;53.47;;;;;;;;;;4936239;29;20414;-46
2023/10/26 09:29:22;;;;;;;;;;;;;;;;;;4936960;29;20152;-49
2023/10/26 09:31:55;;;;;;;130.57;50.42;;;;;;;;;;4936397;29;20297;-49
2023/10/26 09:34:24;;;;;;;130.68;52.70;;;;;;;;;;4936219;29;20403;-52
2023/10/26 09:37:04;;;;;;;131.65;51.45;;;;;;;;;;4936043;29;20102;-52
2023/10/26 09:39:31;;;;;;;121.68;50.30;;;;;;;;;;4919164;29;20517;-50
2023/10/26 09:41:59;;;;;;;128.35;52.95;;;;;;;;;;4936160;29;20403;-51
2023/10/26 09:44:25;;;;;;;137.68;53.25;;;;;;;;;;4936038;29;20024;-52
2023/10/26 09:46:51;;;;;;;115.25;52.53;;;;;;;;;;4935647;29;20023;-54
2023/10/26 09:49:18;;;;;;;113.80;48.43;;;;;;;;;;4936139;29;20087;-52
2023/10/26 09:51:44;;;;;;;117.28;49.53;;;;;;;;;;4935683;29;20316;-51
2023/10/26 09:54:12;;;;;;;105.28;48.97;;;;;;;;;;4935817;29;20119;-49
2023/10/26 09:56:40;;;;;;;98.30;45.58;;;;;;;;;;4935522;29;20035;-53
2023/10/26 09:59:06;;;;;;;110.93;47.35;;;;;;;;;;4917618;29;20036;-50
2023/10/26 10:01:33;;;;;;;102.03;46.33;;;;;;;;;;4918789;29;20035;-52
2023/10/26 10:04:00;;;;;;;107.57;46.95;;;;;;;;;;4936022;29;20023;-46
2023/10/26 10:06:45;;;;;;;104.35;45.92;;;;;;;;;;4935818;29;20398;-51
2023/10/26 10:09:11;;;;;;;103.32;46.45;;;;;;;;;;4903133;29;20040;-51
2023/10/26 10:11:38;;;;;;;109.35;47.42;;;;;;;;;;4935536;29;20079;-50
2023/10/26 10:14:04;;;;;;;;;;;;;;;;;;4943119;29;20066;-50
2023/10/26 10:16:36;;;;;;;107.60;46.15;;;;;;;;;;4948800;28;19921;-49
2023/10/26 10:19:18;;;;;;;97.70;44.67;;;;;;;;;;4949750;28;20035;-49
2023/10/26 10:21:45;;;;;;;95.22;45.95;;;;;;;;;;4953300;28;20091;-47
2023/10/26 10:24:11;;;;;;;94.40;47.22;;;;;;;;;;4953304;28;20512;-48
2023/10/26 10:26:56;;;;;;;97.43;46.15;;;;;;;;;;4936173;29;20114;-49
2023/10/26 10:29:22;;;;;;;95.30;46.28;;;;;;;;;;4953621;28;20118;-47
2023/10/26 10:31:49;;;;;;;;;;;;;;;;;;4954185;28;20031;-49
2023/10/26 10:34:19;;;;;;;95.43;44.35;;;;;;;;;;4952283;29;20330;-49
2023/10/26 10:37:05;;;;;;;92.50;45.70;;;;;;;;;;4919376;28;20327;-51
2023/10/26 10:39:31;;;;;;;94.35;44.03;;;;;;;;;;4942752;28;20023;-49
2023/10/26 10:41:57;;;;;;;88.63;45.55;;;;;;;;;;4951511;29;20033;-50
2023/10/26 10:44:24;;;;;;;86.35;42.67;;;;;;;;;;4946275;29;20487;-48
2023/10/26 10:46:51;;;;;;;82.13;43.40;;;;;;;;;;4945956;28;20462;-52
2023/10/26 10:49:18;;;;;;;74.53;39.83;;;;;;;;;;4929660;29;20475;-55
2023/10/26 10:51:44;;;;;;;90.22;41.78;;;;;;;;;;4925556;29;20027;-53
2023/10/26 10:54:11;;;;;;;83.82;42.70;;;;;;;;;;4931991;29;20075;-55
2023/10/26 10:56:46;;;;;;;124.15;78.80;;;;;;;;;;4948421;29;20493;-48
2023/10/26 10:59:18;;;;;;;209.35;156.18;;;;;;;;;;4951633;29;20114;-47
2023/10/26 11:01:45;;;;;;;83.60;40.42;;;;;;;;;;4951104;28;20031;-51
2023/10/26 11:04:14;;;;;;;78.05;40.60;;;;;;;;;;4944116;28;20098;-53
2023/10/26 11:06:45;;;;;;;73.28;39.38;;;;;;;;;;4947957;28;20051;-54
2023/10/26 11:09:25;;;;;;;82.43;42.20;;;;;;;;;;4931036;29;20054;-55
2023/10/26 11:11:51;;;;;;;73.95;39.13;;;;;;;;;;4946853;29;20030;-52
2023/10/26 11:14:19;;;;;;;83.73;41.83;;;;;;;;;;4947596;29;20102;-51
2023/10/26 11:16:46;;;;;;;83.93;43.42;;;;;;;;;;4928747;29;20035;-53
2023/10/26 11:19:12;;;;;;;84.03;42.60;;;;;;;;;;4943744;28;20031;-50
2023/10/26 11:21:39;;;;;;;71.40;37.85;;;;;;;;;;4947637;29;20024;-53
2023/10/26 11:24:06;;;;;;;80.18;40.25;;;;;;;;;;4949644;28;20034;-50
2023/10/26 11:26:32;;;;;;;80.25;41.85;;;;;;;;;;4949347;28;20070;-51
2023/10/26 11:29:03;;;;;;;77.93;40.75;;;;;;;;;;4953323;29;20494;-50
2023/10/26 11:31:41;;;;;;;87.07;44.35;;;;;;;;;;4943155;28;20040;-47
2023/10/26 11:34:08;;;;;;;96.22;42.65;;;;;;;;;;4951726;29;20062;-52
2023/10/26 11:36:35;;;;;;;85.50;45.92;;;;;;;;;;4952185;29;20031;-48
2023/10/26 11:39:02;;;;;;;85.80;44.72;;;;;;;;;;4935370;29;20055;-53
2023/10/26 11:41:28;;;;;;;94.78;46.03;;;;;;;;;;4953230;29;20416;-49
2023/10/26 11:43:54;;;;;;;90.75;45.95;;;;;;;;;;4919811;28;20409;-49
2023/10/26 11:46:37;;;;;;;90.40;44.80;;;;;;;;;;4952096;29;20035;-51
2023/10/26 11:49:04;;;;;;;82.28;42.10;;;;;;;;;;4949897;29;20027;-52
2023/10/26 11:51:31;;;;;;;71.93;39.30;;;;;;;;;;4953389;29;20549;-52
2023/10/26 11:53:58;;;;;;;84.38;42.30;;;;;;;;;;4940836;29;20038;-53
2023/10/26 11:56:24;;;;;;;81.13;42.63;;;;;;;;;;4931293;29;20106;-54
2023/10/26 11:58:50;;;;;;;82.05;42.45;;;;;;;;;;4948023;29;20123;-51
2023/10/26 12:01:16;;;;;;;89.03;42.60;;;;;;;;;;4928101;29;20114;-53
2023/10/26 12:03:43;;;;;;;86.90;44.97;;;;;;;;;;4921490;29;20482;-49
2023/10/26 12:06:11;;;;;;;81.38;43.03;;;;;;;;;;4928967;29;20070;-50
2023/10/26 12:08:37;;;;;;;80.20;41.03;;;;;;;;;;4952225;29;20135;-50
2023/10/26 12:11:04;;;;;;;79.10;41.45;;;;;;;;;;4946016;28;20028;-48
2023/10/26 12:13:32;;;;;;;83.50;40.65;;;;;;;;;;4951652;29;20031;-53
2023/10/26 12:15:58;;;;;;;82.13;41.92;;;;;;;;;;4946818;29;20027;-53
2023/10/26 12:18:25;;;;;;;73.57;40.27;;;;;;;;;;4946334;28;20023;-52
2023/10/26 12:20:51;;;;;;;76.95;40.83;;;;;;;;;;4953180;29;20105;-48
2023/10/26 12:23:17;;;;;;;78.20;39.85;;;;;;;;;;4944977;29;20033;-48
2023/10/26 12:25:43;;;;;;;75.60;38.37;;;;;;;;;;4936319;29;20036;-52
2023/10/26 12:28:09;;;;;;;76.65;39.20;;;;;;;;;;4933734;29;20035;-49
2023/10/26 12:30:35;;;;;;;75.80;38.73;;;;;;;;;;4948149;29;20418;-48
2023/10/26 12:33:02;;;;;;;75.57;40.60;;;;;;;;;;4952474;29;20038;-48
2023/10/26 12:35:28;;;;;;;82.00;38.97;;;;;;;;;;4952868;29;20387;-51
2023/10/26 12:37:54;;;;;;;73.17;39.63;;;;;;;;;;4951244;29;20123;-50
2023/10/26 12:40:21;;;;;;;74.22;38.95;;;;;;;;;;4951498;29;20041;-52
2023/10/26 12:42:47;;;;;;;59.40;35.67;;;;;;;;;;4952943;29;20422;-51
2023/10/26 12:45:14;;;;;;;73.20;39.03;;;;;;;;;;4951635;29;20031;-48
2023/10/26 12:47:40;;;;;;;77.25;39.67;;;;;;;;;;4948153;29;20027;-50
2023/10/26 12:50:06;;;;;;;67.70;38.47;;;;;;;;;;4955231;29;20151;-50
2023/10/26 12:52:32;;;;;;;77.27;38.47;;;;;;;;;;4938837;29;20027;-54
2023/10/26 12:54:58;;;;;;;68.30;39.88;;;;;;;;;;4937169;29;20028;-53
2023/10/26 12:57:25;;;;;;;77.77;40.90;;;;;;;;;;4944220;29;20051;-57
2023/10/26 12:59:51;;;;;;;74.38;40.67;;;;;;;;;;4937039;29;20043;-55
2023/10/26 13:02:17;;;;;;;66.93;37.33;;;;;;;;;;4942147;29;20046;-54
2023/10/26 13:04:43;;;;;;;65.15;36.05;;;;;;;;;;4937839;29;20056;-53
2023/10/26 13:07:09;;;;;;;70.57;39.10;;;;;;;;;;4940705;28;20453;-51
2023/10/26 13:09:40;;;;;;;63.78;37.28;;;;;;;;;;4921158;29;20271;-51
2023/10/26 13:12:07;;;;;;;67.35;36.83;;;;;;;;;;4943589;29;20023;-49
2023/10/26 13:14:33;;;;;;;59.35;36.92;;;;;;;;;;4919727;29;20493;-48
2023/10/26 13:17:00;;;;;;;54.03;32.80;;;;;;;;;;4922904;29;20028;-52
2023/10/26 13:19:27;;;;;;;62.97;36.70;;;;;;;;;;4938799;29;20027;-51
2023/10/26 13:21:53;;;;;;;58.38;34.05;;;;;;;;;;4938538;29;20267;-55
2023/10/26 13:24:20;;;;;;;58.70;35.27;;;;;;;;;;4922860;29;20039;-51
2023/10/26 13:26:46;;;;;;;58.53;34.70;;;;;;;;;;4955504;29;20035;-48
2023/10/26 13:29:12;;;;;;;54.00;32.75;;;;;;;;;;4951824;29;20008;-52
2023/10/26 13:31:38;;;;;;;55.63;34.13;;;;;;;;;;4936397;29;20063;-50
2023/10/26 13:34:07;;;;;;;54.97;34.27;;;;;;;;;;4920485;29;20040;-49
2023/10/26 13:36:33;;;;;;;62.30;36.33;;;;;;;;;;4919069;29;20374;-51
2023/10/26 13:38:59;;;;;;;62.38;36.80;;;;;;;;;;4944218;29;20038;-48
2023/10/26 13:41:26;;;;;;;64.20;38.00;;;;;;;;;;4950009;29;20059;-49
2023/10/26 13:43:53;;;;;;;62.58;36.00;;;;;;;;;;4951220;29;20067;-51
2023/10/26 13:46:20;;;;;;;60.60;34.95;;;;;;;;;;4944820;29;20127;-51
2023/10/26 13:48:46;;;;;;;62.33;38.30;;;;;;;;;;4938119;29;20494;-51
2023/10/26 13:51:17;;;;;;;60.20;34.57;;;;;;;;;;4927955;29;20458;-50
2023/10/26 13:53:44;;;;;;;58.30;35.78;;;;;;;;;;4945061;29;20551;-51
2023/10/26 13:56:10;;;;;;;64.90;37.45;;;;;;;;;;4949299;29;20506;-49
2023/10/26 13:58:36;;;;;;;65.10;39.07;;;;;;;;;;4932361;29;20063;-50
2023/10/26 14:01:02;;;;;;;63.30;36.00;;;;;;;;;;4947102;29;20546;-50
2023/10/26 14:03:29;;;;;;;57.95;36.60;;;;;;;;;;4935756;29;20059;-50
2023/10/26 14:05:56;;;;;;;69.38;38.78;;;;;;;;;;4945453;29;20458;-48
2023/10/26 14:08:22;;;;;;;70.22;41.22;;;;;;;;;;4951567;29;20112;-54
2023/10/26 14:10:48;;;;;;;77.90;40.93;;;;;;;;;;4935684;29;20031;-50